Time;durP1;ratioP1;P1;durP2;ratioP2;P2;SDS_P1;SDS_P2;PMS_P1;PMS_P2;Temp;Humidity;BMP_temperature;BMP_pressure;BME280_temperature;BME280_humidity;BME280_pressure;Samples;Min_cycle;Max_cycle;Signal;HPM_P1;HPM_P2
2022/01/01 00:02:15;;;;;;;;;;;20.70;49.60;;;;;;5104573;28;19934;-44
2022/01/01 00:04:42;;;;;;;;;;;20.70;49.60;;;;;;5088816;28;20329;-46
2022/01/01 00:07:12;;;;;;;;;;;20.70;49.60;;;;;;5088240;28;20011;-46
2022/01/01 00:09:39;;;;;;;;;;;20.70;49.60;;;;;;5086356;28;20459;-45
2022/01/01 00:12:07;;;;;;;;;;;20.70;49.60;;;;;;5096794;28;20015;-46
2022/01/01 00:14:33;;;;;;;;;;;20.70;49.60;;;;;;5101770;28;19938;-46
2022/01/01 00:17:00;;;;;;;;;;;20.70;49.60;;;;;;5087470;28;20443;-50
2022/01/01 00:19:27;;;;;;;;;;;20.70;49.60;;;;;;5088511;28;20010;-44
2022/01/01 00:21:54;;;;;;;;;;;20.70;49.60;;;;;;5088663;28;19985;-48
2022/01/01 00:24:22;;;;;;;;;;;20.70;49.60;;;;;;5088044;28;20372;-44
2022/01/01 00:26:49;;;;;;;;;;;20.70;49.60;;;;;;5111278;28;19928;-46
2022/01/01 00:29:16;;;;;;;;;;;20.70;49.60;;;;;;5084622;28;19930;-46
2022/01/01 00:31:42;;;;;;;;;;;20.70;49.60;;;;;;5089466;28;19950;-43
2022/01/01 00:34:09;;;;;;;;;;;20.70;49.60;;;;;;5082680;28;19934;-44
2022/01/01 00:36:36;;;;;;;;;;;20.70;49.60;;;;;;5088935;28;20399;-45
2022/01/01 00:39:03;;;;;;;;;;;20.70;49.60;;;;;;5092089;28;19923;-43
2022/01/01 00:41:31;;;;;;;;;;;20.70;49.60;;;;;;5090429;28;19939;-43
2022/01/01 00:43:57;;;;;;;;;;;20.70;49.60;;;;;;5092917;28;19985;-45
2022/01/01 00:46:24;;;;;;;;;;;20.70;49.60;;;;;;5093218;28;20024;-46
2022/01/01 00:48:53;;;;;;;;;;;20.70;49.60;;;;;;5089340;28;20022;-45
2022/01/01 00:51:20;;;;;;;;;;;20.70;49.60;;;;;;5113146;27;19928;-46
2022/01/01 00:53:47;;;;;;;;;;;20.70;49.60;;;;;;5109961;28;20364;-46
2022/01/01 00:56:13;;;;;;;;;;;20.70;49.60;;;;;;5108071;28;20019;-47
2022/01/01 00:58:41;;;;;;;;;;;20.70;49.60;;;;;;5110118;28;19978;-43
2022/01/01 01:01:08;;;;;;;;;;;20.70;49.80;;;;;;5088933;28;19923;-44
2022/01/01 01:03:35;;;;;;;;;;;20.70;49.60;;;;;;5091425;28;19924;-43
2022/01/01 01:06:02;;;;;;;;;;;20.70;49.60;;;;;;5110529;28;20032;-43
2022/01/01 01:08:30;;;;;;;;;;;20.70;49.60;;;;;;5086884;28;19931;-49
2022/01/01 01:10:57;;;;;;;;;;;20.70;49.60;;;;;;5090004;28;19931;-47
2022/01/01 01:13:24;;;;;;;;;;;20.70;49.60;;;;;;5092353;28;19934;-45
2022/01/01 01:15:53;;;;;;;;;;;20.70;49.60;;;;;;5108541;28;20431;-45
2022/01/01 01:18:20;;;;;;;;;;;20.70;49.60;;;;;;5092653;28;19924;-48
2022/01/01 01:20:46;;;;;;;;;;;20.70;49.60;;;;;;5106272;28;19941;-47
2022/01/01 01:23:13;;;;;;;;;;;20.70;49.60;;;;;;5092503;28;19981;-48
2022/01/01 01:25:41;;;;;;;;;;;20.60;49.50;;;;;;5091672;27;19959;-43
2022/01/01 01:28:08;;;;;;;;;;;20.70;49.60;;;;;;5088527;28;19927;-47
2022/01/01 01:30:35;;;;;;;;;;;20.70;49.60;;;;;;5106076;28;20014;-44
2022/01/01 01:33:03;;;;;;;;;;;20.70;49.60;;;;;;5090704;28;20042;-48
2022/01/01 01:35:30;;;;;;;;;;;20.60;49.60;;;;;;5091740;28;19927;-47
2022/01/01 01:37:57;;;;;;;;;;;20.60;49.60;;;;;;5091462;28;19928;-43
2022/01/01 01:40:24;;;;;;;;;;;20.70;49.60;;;;;;5090802;28;20346;-45
2022/01/01 01:42:50;;;;;;;;;;;20.60;49.50;;;;;;5106720;28;20022;-44
2022/01/01 01:45:19;;;;;;;;;;;20.70;49.60;;;;;;5090879;28;19951;-43
2022/01/01 01:47:47;;;;;;;;;;;20.70;49.60;;;;;;5090384;28;19999;-46
2022/01/01 01:50:16;;;;;;;;;;;20.70;49.50;;;;;;5108317;28;20030;-44
2022/01/01 01:52:45;;;;;;;;;;;20.70;49.50;;;;;;5090053;28;19927;-43
2022/01/01 01:55:11;;;;;;;;;;;20.70;49.50;;;;;;5089870;28;19932;-43
2022/01/01 01:57:40;;;;;;;;;;;20.70;49.50;;;;;;5090048;28;20042;-45
2022/01/01 02:00:14;;;;;;;;;;;20.70;49.50;;;;;;5107774;28;20380;-45
2022/01/01 02:02:40;;;;;;;;;;;20.60;49.40;;;;;;5093848;28;20260;-47
2022/01/01 02:05:08;;;;;;;;;;;20.70;49.50;;;;;;5090636;28;19928;-45
2022/01/01 02:07:36;;;;;;;;;;;20.70;49.50;;;;;;5090543;27;19980;-44
2022/01/01 02:10:03;;;;;;;;;;;20.70;49.50;;;;;;5089871;28;19924;-45
2022/01/01 02:12:30;;;;;;;;;;;20.70;49.50;;;;;;5093399;28;20296;-43
2022/01/01 02:15:12;;;;;;;;;;;20.70;49.50;;;;;;5090760;28;20433;-47
2022/01/01 02:17:38;;;;;;;;;;;20.60;49.40;;;;;;5089709;28;19927;-43
2022/01/01 02:20:11;;;;;;;;;;;20.70;49.50;;;;;;5090545;28;19930;-45
2022/01/01 02:22:44;;;;;;;;;;;20.70;49.50;;;;;;5077552;28;19930;-45
2022/01/01 02:25:11;;;;;;;;;;;20.70;49.50;;;;;;5087910;28;20014;-46
2022/01/01 02:27:37;;;;;;;;;;;20.70;49.50;;;;;;5090050;28;20413;-45
2022/01/01 02:30:05;;;;;;;;;;;20.60;49.30;;;;;;5089532;28;20018;-44
2022/01/01 02:32:32;;;;;;;;;;;20.70;49.50;;;;;;5090385;28;19963;-46
2022/01/01 02:34:58;;;;;;;;;;;20.70;49.40;;;;;;5108278;28;19928;-43
2022/01/01 02:37:26;;;;;;;;;;;20.70;49.40;;;;;;5091119;27;20010;-48
2022/01/01 02:39:53;;;;;;;;;;;20.70;49.40;;;;;;5093154;28;19934;-48
2022/01/01 02:42:22;;;;;;;;;;;20.70;49.50;;;;;;5089219;28;19945;-49
2022/01/01 02:44:50;;;;;;;;;;;20.70;49.40;;;;;;5089826;28;20340;-46
2022/01/01 02:47:17;;;;;;;;;;;20.70;49.40;;;;;;5086694;28;19971;-48
2022/01/01 02:49:43;;;;;;;;;;;20.70;49.40;;;;;;5089923;28;20023;-46
2022/01/01 02:52:10;;;;;;;;;;;20.70;49.40;;;;;;5088713;28;19923;-44
2022/01/01 02:54:39;;;;;;;;;;;20.70;49.40;;;;;;5088975;28;20020;-47
2022/01/01 02:57:06;;;;;;;;;;;20.70;49.40;;;;;;5103425;28;20022;-44
2022/01/01 02:59:32;;;;;;;;;;;20.70;49.40;;;;;;5093328;28;19928;-43
2022/01/01 03:01:59;;;;;;;;;;;20.60;49.30;;;;;;5086939;28;19967;-44
2022/01/01 03:04:26;;;;;;;;;;;20.60;49.30;;;;;;5089613;28;19933;-43
2022/01/01 03:06:55;;;;;;;;;;;20.60;49.30;;;;;;5087628;28;19962;-45
2022/01/01 03:09:22;;;;;;;;;;;20.60;49.30;;;;;;5089128;28;19928;-45
2022/01/01 03:11:51;;;;;;;;;;;20.70;49.40;;;;;;5108738;28;19966;-45
2022/01/01 03:14:18;;;;;;;;;;;20.60;49.30;;;;;;5089411;28;19923;-44
2022/01/01 03:16:45;;;;;;;;;;;20.60;49.30;;;;;;5087661;28;20388;-46
2022/01/01 03:19:12;;;;;;;;;;;20.70;49.40;;;;;;5086174;28;19988;-46
2022/01/01 03:21:39;;;;;;;;;;;20.60;49.30;;;;;;5087208;28;20301;-45
2022/01/01 03:24:06;;;;;;;;;;;20.60;49.30;;;;;;5109037;27;19931;-44
2022/01/01 03:26:32;;;;;;;;;;;20.60;49.30;;;;;;5088064;28;19981;-45
2022/01/01 03:29:00;;;;;;;;;;;20.70;49.40;;;;;;5084998;28;20265;-47
2022/01/01 03:31:27;;;;;;;;;;;20.60;49.30;;;;;;5085839;28;19924;-44
2022/01/01 03:33:54;;;;;;;;;;;20.60;49.30;;;;;;5089671;28;19938;-46
2022/01/01 03:36:21;;;;;;;;;;;20.60;49.30;;;;;;5088127;28;19924;-45
2022/01/01 03:38:48;;;;;;;;;;;20.70;49.40;;;;;;5088647;28;19927;-43
2022/01/01 03:41:14;;;;;;;;;;;20.70;49.40;;;;;;5100906;28;19975;-43
2022/01/01 03:43:41;;;;;;;;;;;20.60;49.30;;;;;;5088778;28;20276;-46
2022/01/01 03:46:09;;;;;;;;;;;20.70;49.40;;;;;;5106579;28;20023;-43
2022/01/01 03:48:36;;;;;;;;;;;20.70;49.40;;;;;;5087925;28;20023;-46
2022/01/01 03:51:02;;;;;;;;;;;20.60;49.30;;;;;;5102659;28;19924;-47
2022/01/01 03:53:29;;;;;;;;;;;20.60;49.30;;;;;;5088038;28;19924;-44
2022/01/01 03:55:57;;;;;;;;;;;20.60;49.30;;;;;;5088529;28;20434;-44
2022/01/01 03:58:24;;;;;;;;;;;20.70;49.40;;;;;;5086656;28;19923;-43
2022/01/01 04:00:50;;;;;;;;;;;20.70;49.40;;;;;;5106381;27;19928;-43
2022/01/01 04:03:19;;;;;;;;;;;20.60;49.30;;;;;;5088064;28;20019;-43
2022/01/01 04:05:46;;;;;;;;;;;20.60;49.30;;;;;;5088195;28;19997;-42
2022/01/01 04:08:13;;;;;;;;;;;20.70;49.30;;;;;;5091095;28;20339;-43
2022/01/01 04:10:39;;;;;;;;;;;20.60;49.30;;;;;;5087651;28;20038;-46
2022/01/01 04:13:07;;;;;;;;;;;20.60;49.30;;;;;;5087020;28;19989;-43
2022/01/01 04:15:34;;;;;;;;;;;20.60;49.30;;;;;;5086965;28;20400;-49
2022/01/01 04:18:04;;;;;;;;;;;20.60;49.30;;;;;;5087888;28;19924;-43
2022/01/01 04:20:32;;;;;;;;;;;20.60;49.30;;;;;;5085314;28;19923;-44
2022/01/01 04:22:59;;;;;;;;;;;20.70;49.30;;;;;;5087966;28;20421;-45
2022/01/01 04:25:25;;;;;;;;;;;20.70;49.30;;;;;;5088003;28;19938;-49
2022/01/01 04:27:53;;;;;;;;;;;20.60;49.30;;;;;;5087802;28;19954;-47
2022/01/01 04:30:19;;;;;;;;;;;20.60;49.30;;;;;;5104495;28;19946;-44
2022/01/01 04:32:46;;;;;;;;;;;20.70;49.30;;;;;;5083352;28;19923;-43
2022/01/01 04:35:13;;;;;;;;;;;20.70;49.30;;;;;;5102888;28;20020;-43
2022/01/01 04:37:41;;;;;;;;;;;20.60;49.30;;;;;;5087141;28;19924;-44
2022/01/01 04:40:09;;;;;;;;;;;20.60;49.30;;;;;;5103323;28;19924;-45
2022/01/01 04:42:35;;;;;;;;;;;20.60;49.30;;;;;;5086861;28;19981;-43
2022/01/01 04:45:03;;;;;;;;;;;20.60;49.30;;;;;;5106475;28;19936;-43
2022/01/01 04:47:29;;;;;;;;;;;20.60;49.30;;;;;;5084042;28;19924;-44
2022/01/01 04:49:56;;;;;;;;;;;20.70;49.30;;;;;;5088457;28;20013;-44
2022/01/01 04:52:23;;;;;;;;;;;20.60;49.30;;;;;;5087651;28;20132;-49
2022/01/01 04:54:51;;;;;;;;;;;20.60;49.30;;;;;;5082362;28;19984;-48
2022/01/01 04:57:18;;;;;;;;;;;20.70;49.30;;;;;;5087596;28;20370;-44
2022/01/01 04:59:45;;;;;;;;;;;20.60;49.30;;;;;;5087852;28;19931;-43
2022/01/01 05:02:12;;;;;;;;;;;20.70;49.30;;;;;;5101616;28;19969;-44
2022/01/01 05:04:38;;;;;;;;;;;20.70;49.30;;;;;;5107040;28;20295;-43
2022/01/01 05:07:07;;;;;;;;;;;20.60;49.30;;;;;;5087959;28;19958;-50
2022/01/01 05:09:34;;;;;;;;;;;20.60;49.30;;;;;;5103397;28;19942;-43
2022/01/01 05:12:02;;;;;;;;;;;20.60;49.30;;;;;;5105779;28;19923;-43
2022/01/01 05:14:29;;;;;;;;;;;20.60;49.20;;;;;;5088093;28;19935;-43
2022/01/01 05:16:57;;;;;;;;;;;20.60;49.30;;;;;;5105951;28;19924;-43
2022/01/01 05:19:24;;;;;;;;;;;20.70;49.30;;;;;;5087191;28;19928;-46
2022/01/01 05:21:55;;;;;;;;;;;20.70;49.30;;;;;;5104529;28;20380;-44
2022/01/01 05:24:21;;;;;;;;;;;20.70;49.30;;;;;;5086853;28;20015;-43
2022/01/01 05:26:48;;;;;;;;;;;20.60;49.80;;;;;;5108077;28;19923;-44
2022/01/01 05:29:17;;;;;;;;;;;20.70;49.30;;;;;;5086711;28;20019;-49
2022/01/01 05:31:44;;;;;;;;;;;20.70;49.30;;;;;;5089571;28;20467;-46
2022/01/01 05:34:10;;;;;;;;;;;20.60;49.20;;;;;;5091931;28;19971;-43
2022/01/01 05:36:37;;;;;;;;;;;20.60;49.20;;;;;;5109820;28;19924;-44
2022/01/01 05:39:04;;;;;;;;;;;20.60;49.20;;;;;;5109292;28;19925;-44
2022/01/01 05:41:31;;;;;;;;;;;20.60;49.30;;;;;;5090994;28;20271;-46
2022/01/01 05:43:57;;;;;;;;;;;20.70;49.30;;;;;;5089580;28;19946;-47
2022/01/01 05:46:25;;;;;;;;;;;20.60;49.20;;;;;;5088735;28;19927;-45
2022/01/01 05:48:52;;;;;;;;;;;20.60;49.20;;;;;;5092041;28;20432;-44
2022/01/01 05:51:19;;;;;;;;;;;20.60;49.20;;;;;;5088152;28;19954;-44
2022/01/01 05:53:46;;;;;;;;;;;20.70;49.30;;;;;;5090661;28;19970;-44
2022/01/01 05:56:13;;;;;;;;;;;20.60;49.80;;;;;;5091496;28;19992;-47
2022/01/01 05:58:39;;;;;;;;;;;20.60;49.20;;;;;;5091101;28;19999;-48
2022/01/01 06:01:06;;;;;;;;;;;20.70;49.30;;;;;;5088099;28;19931;-46
2022/01/01 06:03:34;;;;;;;;;;;20.60;49.20;;;;;;5089513;28;19938;-44
2022/01/01 06:06:01;;;;;;;;;;;20.60;49.20;;;;;;5089345;28;19924;-45
2022/01/01 06:08:28;;;;;;;;;;;20.70;49.30;;;;;;5087633;28;20288;-44
2022/01/01 06:10:55;;;;;;;;;;;20.70;49.20;;;;;;5090569;28;20554;-49
2022/01/01 06:13:21;;;;;;;;;;;20.60;49.20;;;;;;5108718;28;19977;-46
2022/01/01 06:15:48;;;;;;;;;;;20.60;49.20;;;;;;5090086;28;19924;-43
2022/01/01 06:18:15;;;;;;;;;;;20.60;49.20;;;;;;5089905;28;19981;-45
2022/01/01 06:20:43;;;;;;;;;;;20.60;49.20;;;;;;5090112;28;19947;-45
2022/01/01 06:23:10;;;;;;;;;;;20.60;49.20;;;;;;5089680;28;19928;-43
2022/01/01 06:25:37;;;;;;;;;;;20.60;49.20;;;;;;5090246;28;19924;-45
2022/01/01 06:28:04;;;;;;;;;;;20.60;49.20;;;;;;5088887;28;20026;-45
2022/01/01 06:30:33;;;;;;;;;;;20.70;49.20;;;;;;5090455;28;20007;-43
2022/01/01 06:33:00;;;;;;;;;;;20.70;49.20;;;;;;5087544;28;19972;-43
2022/01/01 06:35:27;;;;;;;;;;;20.60;49.20;;;;;;5090018;28;19946;-43
2022/01/01 06:37:55;;;;;;;;;;;20.60;49.20;;;;;;5090544;27;20013;-48
2022/01/01 06:40:22;;;;;;;;;;;20.60;49.20;;;;;;5089420;28;19941;-44
2022/01/01 06:42:49;;;;;;;;;;;20.60;49.20;;;;;;5090329;28;19927;-43
2022/01/01 06:45:16;;;;;;;;;;;20.70;49.30;;;;;;5087067;28;20416;-48
2022/01/01 06:47:43;;;;;;;;;;;20.70;49.20;;;;;;5089941;28;19928;-43
2022/01/01 06:50:09;;;;;;;;;;;20.60;49.20;;;;;;5106995;28;20392;-47
2022/01/01 06:52:41;;;;;;;;;;;20.60;49.20;;;;;;5107458;28;19927;-51
2022/01/01 06:55:10;;;;;;;;;;;20.70;49.20;;;;;;5089621;28;20018;-43
2022/01/01 06:57:37;;;;;;;;;;;20.60;49.10;;;;;;5088799;28;19938;-44
2022/01/01 07:00:04;;;;;;;;;;;20.70;49.20;;;;;;5089438;28;20079;-46
2022/01/01 07:02:31;;;;;;;;;;;20.60;49.20;;;;;;5088190;28;19928;-45
2022/01/01 07:04:58;;;;;;;;;;;20.60;49.20;;;;;;5108144;28;19927;-45
2022/01/01 07:07:25;;;;;;;;;;;20.60;49.20;;;;;;5084757;27;19959;-47
2022/01/01 07:09:52;;;;;;;;;;;20.60;49.20;;;;;;5085787;28;20006;-43
2022/01/01 07:12:20;;;;;;;;;;;20.60;49.10;;;;;;5101347;28;20009;-46
2022/01/01 07:14:47;;;;;;;;;;;20.70;49.20;;;;;;5107703;28;20388;-42
2022/01/01 07:17:14;;;;;;;;;;;20.60;49.10;;;;;;5089822;28;19923;-45
2022/01/01 07:19:41;;;;;;;;;;;20.70;49.20;;;;;;5093751;27;20027;-47
2022/01/01 07:22:07;;;;;;;;;;;20.60;49.10;;;;;;5086975;28;20014;-45
2022/01/01 07:24:34;;;;;;;;;;;20.70;49.20;;;;;;5089747;28;19931;-43
2022/01/01 07:27:01;;;;;;;;;;;20.60;49.10;;;;;;5091934;28;19928;-45
2022/01/01 07:29:29;;;;;;;;;;;20.70;49.20;;;;;;5088045;28;19977;-45
2022/01/01 07:31:55;;;;;;;;;;;20.60;49.10;;;;;;5091217;28;20027;-50
2022/01/01 07:34:22;;;;;;;;;;;20.60;49.70;;;;;;5088731;28;19924;-44
2022/01/01 07:36:49;;;;;;;;;;;20.60;49.10;;;;;;5085083;28;20299;-46
2022/01/01 07:39:16;;;;;;;;;;;20.60;49.10;;;;;;5088604;28;19959;-44
2022/01/01 07:41:43;;;;;;;;;;;20.70;49.20;;;;;;5087786;28;19973;-44
2022/01/01 07:44:10;;;;;;;;;;;20.70;49.20;;;;;;5086019;28;19934;-44
2022/01/01 07:46:39;;;;;;;;;;;20.70;49.20;;;;;;5101337;27;19959;-47
2022/01/01 07:49:06;;;;;;;;;;;20.60;49.10;;;;;;5103129;28;19969;-46
2022/01/01 07:51:33;;;;;;;;;;;20.60;49.10;;;;;;5085373;28;20285;-43
2022/01/01 07:54:00;;;;;;;;;;;20.70;49.20;;;;;;5085049;28;19978;-42
2022/01/01 07:56:27;;;;;;;;;;;20.70;49.10;;;;;;5105053;28;19924;-44
2022/01/01 07:58:54;;;;;;;;;;;20.60;49.10;;;;;;5086134;28;19928;-46
2022/01/01 08:01:21;;;;;;;;;;;20.70;49.10;;;;;;5103301;28;19928;-45
2022/01/01 08:03:49;;;;;;;;;;;20.70;49.10;;;;;;5096658;28;19928;-43
2022/01/01 08:06:17;;;;;;;;;;;20.60;49.10;;;;;;5104941;28;19928;-48
2022/01/01 08:08:43;;;;;;;;;;;20.70;49.20;;;;;;5085305;28;20381;-48
2022/01/01 08:11:10;;;;;;;;;;;20.70;49.10;;;;;;5098523;28;20520;-45
2022/01/01 08:13:37;;;;;;;;;;;20.70;49.10;;;;;;5086835;28;19967;-46
2022/01/01 08:16:04;;;;;;;;;;;20.70;49.10;;;;;;5085187;28;19936;-44
2022/01/01 08:18:31;;;;;;;;;;;20.60;49.10;;;;;;5104623;28;20113;-43
2022/01/01 08:20:59;;;;;;;;;;;20.70;49.10;;;;;;5086402;28;19982;-50
2022/01/01 08:23:26;;;;;;;;;;;20.70;49.10;;;;;;5086819;28;19931;-46
2022/01/01 08:25:56;;;;;;;;;;;20.70;49.10;;;;;;5103625;28;19927;-45
2022/01/01 08:28:23;;;;;;;;;;;20.70;49.10;;;;;;5085924;28;19924;-43
2022/01/01 08:30:49;;;;;;;;;;;20.70;49.10;;;;;;5106541;28;19931;-48
2022/01/01 08:33:16;;;;;;;;;;;20.70;49.10;;;;;;5087689;28;19928;-44
2022/01/01 08:35:43;;;;;;;;;;;20.70;49.10;;;;;;5107415;28;20387;-44
2022/01/01 08:38:13;;;;;;;;;;;20.60;49.10;;;;;;5088425;28;19959;-59
2022/01/01 08:40:40;;;;;;;;;;;20.60;49.20;;;;;;5088904;28;19928;-57
2022/01/01 08:43:07;;;;;;;;;;;20.70;49.20;;;;;;5086945;28;20280;-60
2022/01/01 08:45:34;;;;;;;;;;;20.60;49.20;;;;;;5086835;28;19924;-59
2022/01/01 08:48:01;;;;;;;;;;;20.60;49.20;;;;;;5088721;28;19931;-57
2022/01/01 08:50:27;;;;;;;;;;;20.60;49.20;;;;;;5087953;28;19962;-59
2022/01/01 08:52:55;;;;;;;;;;;20.60;49.20;;;;;;5089214;28;19924;-58
2022/01/01 08:55:23;;;;;;;;;;;20.60;49.20;;;;;;5071515;28;20434;-59
2022/01/01 08:57:50;;;;;;;;;;;20.60;49.10;;;;;;5091712;28;19940;-59
2022/01/01 09:00:17;;;;;;;;;;;20.60;49.10;;;;;;5099057;28;19923;-57
2022/01/01 09:02:44;;;;;;;;;;;20.60;49.10;;;;;;5093049;28;20034;-57
2022/01/01 09:05:11;;;;;;;;;;;20.60;49.10;;;;;;5089222;28;19932;-59
2022/01/01 09:07:38;;;;;;;;;;;20.50;49.00;;;;;;5107551;28;19931;-61
2022/01/01 09:10:05;;;;;;;;;;;20.50;49.00;;;;;;5089846;28;19935;-59
2022/01/01 09:12:33;;;;;;;;;;;20.50;49.00;;;;;;5090505;28;20359;-58
2022/01/01 09:15:00;;;;;;;;;;;20.60;49.10;;;;;;5103678;28;19927;-56
2022/01/01 09:17:26;;;;;;;;;;;20.50;49.00;;;;;;5089509;28;19969;-60
2022/01/01 09:19:53;;;;;;;;;;;20.50;49.00;;;;;;5082372;28;20539;-60
2022/01/01 09:22:20;;;;;;;;;;;20.50;49.00;;;;;;5080583;27;19919;-60
2022/01/01 09:24:47;;;;;;;;;;;20.60;49.10;;;;;;5096012;28;20018;-58
2022/01/01 09:27:13;;;;;;;;;;;20.50;49.10;;;;;;5088588;28;20338;-59
2022/01/01 09:29:41;;;;;;;;;;;20.50;49.10;;;;;;5086619;28;20350;-61
2022/01/01 09:32:10;;;;;;;;;;;20.50;49.10;;;;;;5107561;28;19923;-60
2022/01/01 09:34:37;;;;;;;;;;;20.50;49.10;;;;;;5088541;28;19928;-61
2022/01/01 09:37:04;;;;;;;;;;;20.60;49.20;;;;;;5088043;28;19924;-60
2022/01/01 09:39:31;;;;;;;;;;;20.50;49.10;;;;;;5109456;27;19934;-61
2022/01/01 09:41:57;;;;;;;;;;;20.50;49.10;;;;;;5086693;28;20528;-59
2022/01/01 09:44:24;;;;;;;;;;;20.50;49.10;;;;;;5104695;27;19932;-60
2022/01/01 09:46:53;;;;;;;;;;;20.60;49.20;;;;;;5089758;28;19928;-60
2022/01/01 09:49:20;;;;;;;;;;;20.50;49.10;;;;;;5089694;28;19928;-58
2022/01/01 09:51:47;;;;;;;;;;;20.50;49.10;;;;;;5090228;28;19932;-58
2022/01/01 09:54:13;;;;;;;;;;;20.50;49.10;;;;;;5105275;28;20448;-60
2022/01/01 09:56:40;;;;;;;;;;;20.60;49.20;;;;;;5089277;28;20312;-58
2022/01/01 09:59:07;;;;;;;;;;;20.50;49.10;;;;;;5101834;28;20159;-56
2022/01/01 10:01:34;;;;;;;;;;;20.60;49.30;;;;;;5090508;28;19928;-58
2022/01/01 10:04:04;;;;;;;;;;;20.50;49.20;;;;;;5107444;28;19963;-57
2022/01/01 10:06:32;;;;;;;;;;;20.50;49.10;;;;;;5086093;28;19939;-60
2022/01/01 10:08:59;;;;;;;;;;;20.60;49.20;;;;;;5089451;28;19924;-59
2022/01/01 10:11:26;;;;;;;;;;;20.50;49.10;;;;;;5088191;28;19932;-58
2022/01/01 10:13:53;;;;;;;;;;;20.50;49.10;;;;;;5088682;28;20423;-61
2022/01/01 10:16:20;;;;;;;;;;;20.50;49.10;;;;;;5087113;28;19978;-60
2022/01/01 10:18:47;;;;;;;;;;;20.50;49.10;;;;;;5080363;28;20030;-61
2022/01/01 10:21:15;;;;;;;;;;;20.50;49.10;;;;;;5090146;28;19928;-57
2022/01/01 10:23:43;;;;;;;;;;;20.50;49.10;;;;;;5107773;28;19924;-56
2022/01/01 10:28:54;;;;;;;;;;;20.50;49.20;;;;;;5089988;28;19927;-60
2022/01/01 10:31:21;;;;;;;;;;;20.50;49.20;;;;;;5088293;28;19980;-59
2022/01/01 10:33:48;;;;;;;;;;;20.50;49.20;;;;;;5088834;28;19992;-61
2022/01/01 10:36:16;;;;;;;;;;;20.50;49.10;;;;;;5083574;28;20350;-59
2022/01/01 10:38:44;;;;;;;;;;;20.50;49.10;;;;;;5089252;28;20299;-59
2022/01/01 10:41:13;;;;;;;;;;;20.50;49.10;;;;;;5101861;28;20755;-59
2022/01/01 10:43:40;;;;;;;;;;;20.50;49.20;;;;;;5080340;28;20316;-61
2022/01/01 10:46:07;;;;;;;;;;;20.50;49.10;;;;;;5082447;28;20031;-61
2022/01/01 10:48:42;;;;;;;;;;;20.50;49.10;;;;;;5089294;28;19934;-59
2022/01/01 10:51:10;;;;;;;;;;;20.50;49.10;;;;;;5107832;28;20365;-59
2022/01/01 10:53:39;;;;;;;;;;;20.50;49.10;;;;;;5103004;28;19951;-60
2022/01/01 10:56:18;;;;;;;;;;;20.50;49.30;;;;;;5089790;28;19927;-56
2022/01/01 10:58:45;;;;;;;;;;;20.50;49.20;;;;;;5085492;28;19927;-60
2022/01/01 11:01:11;;;;;;;;;;;20.50;49.10;;;;;;5106236;28;19951;-60
2022/01/01 11:03:39;;;;;;;;;;;20.40;49.00;;;;;;5088472;28;19927;-59
2022/01/01 11:06:06;;;;;;;;;;;20.50;49.10;;;;;;5088885;28;19967;-59
2022/01/01 11:08:33;;;;;;;;;;;20.40;49.00;;;;;;5087788;28;19971;-60
2022/01/01 11:11:01;;;;;;;;;;;20.40;49.00;;;;;;5088822;28;19981;-60
2022/01/01 11:13:28;;;;;;;;;;;20.50;49.10;;;;;;5082120;28;19928;-60
2022/01/01 11:15:55;;;;;;;;;;;20.40;49.00;;;;;;5078651;28;19932;-56
2022/01/01 11:18:23;;;;;;;;;;;20.40;49.00;;;;;;5096328;27;19924;-61
2022/01/01 11:20:51;;;;;;;;;;;20.50;49.00;;;;;;5105829;28;21368;-59
2022/01/01 11:23:18;;;;;;;;;;;20.40;49.00;;;;;;5100110;27;19924;-59
2022/01/01 11:25:44;;;;;;;;;;;20.50;49.00;;;;;;5105175;28;19924;-59
2022/01/01 11:28:13;;;;;;;;;;;20.50;49.00;;;;;;5089164;28;19928;-56
2022/01/01 11:30:43;;;;;;;;;;;20.50;49.00;;;;;;5086862;28;19928;-60
2022/01/01 11:33:10;;;;;;;;;;;20.40;49.00;;;;;;5087623;28;19988;-60
2022/01/01 11:35:38;;;;;;;;;;;20.50;49.00;;;;;;5104681;28;19989;-60
2022/01/01 11:38:05;;;;;;;;;;;20.40;49.00;;;;;;5088765;28;19980;-59
2022/01/01 11:40:42;;;;;;;;;;;20.50;49.00;;;;;;5105232;28;20305;-60
2022/01/01 11:43:09;;;;;;;;;;;20.50;49.00;;;;;;5080618;28;19924;-58
2022/01/01 11:45:41;;;;;;;;;;;20.40;48.90;;;;;;5088529;28;19934;-56
2022/01/01 11:48:26;;;;;;;;;;;20.50;49.00;;;;;;5087912;28;19924;-59
2022/01/01 11:50:53;;;;;;;;;;;20.50;49.10;;;;;;5100933;28;19935;-57
2022/01/01 11:53:27;;;;;;;;;;;20.40;49.00;;;;;;5107239;28;20010;-55
2022/01/01 11:56:07;;;;;;;;;;;20.40;49.00;;;;;;5083637;28;19928;-58
2022/01/01 11:58:46;;;;;;;;;;;20.40;49.00;;;;;;5106305;28;19930;-59
2022/01/01 12:01:15;;;;;;;;;;;20.40;49.00;;;;;;5087619;28;19924;-59
2022/01/01 12:03:48;;;;;;;;;;;20.40;49.00;;;;;;5088340;28;19924;-58
2022/01/01 12:06:15;;;;;;;;;;;20.40;49.00;;;;;;5104369;28;19985;-57
2022/01/01 12:08:44;;;;;;;;;;;20.50;49.10;;;;;;5101205;27;19933;-59
2022/01/01 12:11:11;;;;;;;;;;;20.40;49.00;;;;;;5109114;27;19967;-56
2022/01/01 12:13:38;;;;;;;;;;;20.40;49.00;;;;;;5114277;27;20026;-61
2022/01/01 12:16:20;;;;;;;;;;;20.40;49.00;;;;;;5088433;28;20013;-58
2022/01/01 12:18:47;;;;;;;;;;;20.40;49.00;;;;;;5089182;28;19931;-55
2022/01/01 12:21:19;;;;;;;;;;;20.40;49.00;;;;;;5081746;28;20030;-59
2022/01/01 12:23:48;;;;;;;;;;;20.40;49.00;;;;;;5086728;28;19931;-59
2022/01/01 12:26:15;;;;;;;;;;;20.40;49.10;;;;;;5084523;28;19930;-59
2022/01/01 12:28:43;;;;;;;;;;;20.40;49.10;;;;;;5088757;28;20380;-61
2022/01/01 12:31:10;;;;;;;;;;;20.40;49.10;;;;;;5106998;28;19930;-60
2022/01/01 12:33:42;;;;;;;;;;;20.40;49.00;;;;;;5088822;28;19932;-59
2022/01/01 12:36:09;;;;;;;;;;;20.40;49.10;;;;;;5092930;28;20041;-59
2022/01/01 12:38:39;;;;;;;;;;;20.50;49.20;;;;;;5103921;27;20015;-60
2022/01/01 12:41:07;;;;;;;;;;;20.50;49.20;;;;;;5088093;28;19931;-60
2022/01/01 12:43:35;;;;;;;;;;;20.40;49.10;;;;;;5089064;28;20020;-59
2022/01/01 12:46:02;;;;;;;;;;;20.40;49.10;;;;;;5083964;28;19939;-60
2022/01/01 12:48:29;;;;;;;;;;;20.40;49.10;;;;;;5110982;28;19946;-60
2022/01/01 12:50:58;;;;;;;;;;;20.50;49.20;;;;;;5111377;28;19927;-60
2022/01/01 12:53:26;;;;;;;;;;;20.40;49.10;;;;;;5090506;28;19930;-60
2022/01/01 12:55:59;;;;;;;;;;;20.40;49.10;;;;;;5082944;28;20652;-60
2022/01/01 12:58:26;;;;;;;;;;;20.40;49.10;;;;;;5090414;28;19923;-61
2022/01/01 13:00:53;;;;;;;;;;;20.40;49.10;;;;;;5100957;28;19985;-60
2022/01/01 13:03:20;;;;;;;;;;;20.40;49.10;;;;;;5105402;28;19930;-59
2022/01/01 13:05:47;;;;;;;;;;;20.40;49.10;;;;;;5096205;28;19935;-59
2022/01/01 13:08:16;;;;;;;;;;;20.40;49.10;;;;;;5096321;28;19965;-59
2022/01/01 13:10:42;;;;;;;;;;;20.40;49.20;;;;;;5089533;28;19980;-60
2022/01/01 13:13:09;;;;;;;;;;;20.40;49.20;;;;;;5090513;28;19931;-59
2022/01/01 13:15:37;;;;;;;;;;;20.40;49.10;;;;;;5109323;28;19931;-59
2022/01/01 13:18:03;;;;;;;;;;;20.40;49.20;;;;;;5091062;28;19924;-59
2022/01/01 13:20:32;;;;;;;;;;;20.40;49.10;;;;;;5091288;28;19934;-59
2022/01/01 13:23:04;;;;;;;;;;;20.40;49.20;;;;;;5090839;28;19924;-60
2022/01/01 13:25:32;;;;;;;;;;;20.40;49.20;;;;;;5088216;28;19924;-58
2022/01/01 13:27:58;;;;;;;;;;;20.40;49.20;;;;;;5091227;27;19930;-60
2022/01/01 13:30:25;;;;;;;;;;;20.40;49.20;;;;;;5108167;28;20142;-59
2022/01/01 13:32:52;;;;;;;;;;;20.40;49.20;;;;;;5091707;28;19986;-61
2022/01/01 13:35:24;;;;;;;;;;;20.40;49.20;;;;;;5086274;28;19934;-61
2022/01/01 13:37:50;;;;;;;;;;;20.40;49.20;;;;;;5093272;28;19930;-60
2022/01/01 13:40:17;;;;;;;;;;;20.40;49.20;;;;;;5091572;28;20019;-60
2022/01/01 13:42:45;;;;;;;;;;;20.40;49.20;;;;;;5091554;28;19927;-61
2022/01/01 13:45:12;;;;;;;;;;;20.40;49.20;;;;;;5090611;28;19978;-60
2022/01/01 13:47:39;;;;;;;;;;;20.40;49.20;;;;;;5072212;28;19928;-59
2022/01/01 13:50:11;;;;;;;;;;;20.40;49.30;;;;;;5094685;28;19958;-59
2022/01/01 13:52:38;;;;;;;;;;;20.40;49.30;;;;;;5092639;28;19924;-58
2022/01/01 13:55:08;;;;;;;;;;;20.40;49.20;;;;;;5106142;28;19923;-59
2022/01/01 13:57:38;;;;;;;;;;;20.40;49.20;;;;;;5108263;28;19928;-59
2022/01/01 14:00:07;;;;;;;;;;;20.40;49.20;;;;;;5090274;28;19930;-59
2022/01/01 14:02:34;;;;;;;;;;;20.40;49.20;;;;;;5109883;28;19928;-59
2022/01/01 14:05:01;;;;;;;;;;;20.40;49.20;;;;;;5091608;28;20279;-60
2022/01/01 14:07:28;;;;;;;;;;;20.40;49.20;;;;;;5091842;28;19974;-58
2022/01/01 14:09:59;;;;;;;;;;;20.40;49.20;;;;;;5092427;28;19923;-57
2022/01/01 14:12:26;;;;;;;;;;;20.40;49.20;;;;;;5110008;28;20307;-59
2022/01/01 14:14:52;;;;;;;;;;;20.40;49.20;;;;;;5084927;28;19959;-60
2022/01/01 14:17:20;;;;;;;;;;;20.40;49.20;;;;;;5089125;28;19932;-61
2022/01/01 14:19:47;;;;;;;;;;;20.40;49.20;;;;;;5109774;28;19928;-59
2022/01/01 14:22:14;;;;;;;;;;;20.40;49.60;;;;;;5077963;28;19924;-58